sensor_id;sensor_type;location;lat;lon;timestamp;temperature;humidity
15115;DHT22;7658;51.456;7.622;2022-07-23T00:01:24;16.90;99.90
15115;DHT22;7658;51.456;7.622;2022-07-23T00:03:50;16.80;99.90
15115;DHT22;7658;51.456;7.622;2022-07-23T00:06:17;16.80;99.90
15115;DHT22;7658;51.456;7.622;2022-07-23T00:08:43;16.80;99.90
15115;DHT22;7658;51.456;7.622;2022-07-23T00:11:09;16.70;99.90
15115;DHT22;7658;51.456;7.622;2022-07-23T00:13:35;16.70;99.90
15115;DHT22;7658;51.456;7.622;2022-07-23T00:16:01;16.70;99.90
15115;DHT22;7658;51.456;7.622;2022-07-23T00:18:26;16.60;99.90
15115;DHT22;7658;51.456;7.622;2022-07-23T00:20:52;16.50;99.90
15115;DHT22;7658;51.456;7.622;2022-07-23T00:23:18;16.50;99.90
15115;DHT22;7658;51.456;7.622;2022-07-23T00:25:44;16.40;99.90
15115;DHT22;7658;51.456;7.622;2022-07-23T00:28:13;16.40;99.90
15115;DHT22;7658;51.456;7.622;2022-07-23T00:30:38;16.40;99.90
15115;DHT22;7658;51.456;7.622;2022-07-23T00:33:06;16.40;99.90
15115;DHT22;7658;51.456;7.622;2022-07-23T00:35:35;16.30;99.90
15115;DHT22;7658;51.456;7.622;2022-07-23T00:38:02;16.30;99.90
15115;DHT22;7658;51.456;7.622;2022-07-23T00:40:29;16.20;99.90
15115;DHT22;7658;51.456;7.622;2022-07-23T00:42:55;16.20;99.90
15115;DHT22;7658;51.456;7.622;2022-07-23T00:45:21;16.10;99.90
15115;DHT22;7658;51.456;7.622;2022-07-23T00:47:47;16.10;99.90
15115;DHT22;7658;51.456;7.622;2022-07-23T00:50:13;16.20;99.90
15115;DHT22;7658;51.456;7.622;2022-07-23T00:52:40;16.20;99.90
15115;DHT22;7658;51.456;7.622;2022-07-23T00:55:07;16.20;99.90
15115;DHT22;7658;51.456;7.622;2022-07-23T00:57:34;16.20;99.90
15115;DHT22;7658;51.456;7.622;2022-07-23T00:59:59;16.20;99.90
15115;DHT22;7658;51.456;7.622;2022-07-23T01:02:26;16.20;99.90
15115;DHT22;7658;51.456;7.622;2022-07-23T01:04:52;16.20;99.90
15115;DHT22;7658;51.456;7.622;2022-07-23T01:07:18;16.20;99.90
15115;DHT22;7658;51.456;7.622;2022-07-23T01:09:45;16.20;99.90
15115;DHT22;7658;51.456;7.622;2022-07-23T01:12:11;16.10;99.90
15115;DHT22;7658;51.456;7.622;2022-07-23T01:14:37;16.10;99.90
15115;DHT22;7658;51.456;7.622;2022-07-23T01:17:04;16.10;99.90
15115;DHT22;7658;51.456;7.622;2022-07-23T01:19:30;16.10;99.90
15115;DHT22;7658;51.456;7.622;2022-07-23T01:21:57;16.10;99.90
15115;DHT22;7658;51.456;7.622;2022-07-23T01:24:23;16.10;99.90
15115;DHT22;7658;51.456;7.622;2022-07-23T01:26:50;16.10;99.90
15115;DHT22;7658;51.456;7.622;2022-07-23T01:29:16;16.10;99.90
15115;DHT22;7658;51.456;7.622;2022-07-23T01:31:42;16.10;99.90
15115;DHT22;7658;51.456;7.622;2022-07-23T01:34:08;16.10;99.90
15115;DHT22;7658;51.456;7.622;2022-07-23T01:36:35;16.10;99.90
15115;DHT22;7658;51.456;7.622;2022-07-23T01:39:00;16.10;99.90
15115;DHT22;7658;51.456;7.622;2022-07-23T01:41:26;16.10;99.90
15115;DHT22;7658;51.456;7.622;2022-07-23T01:43:52;16.10;99.90
15115;DHT22;7658;51.456;7.622;2022-07-23T01:46:18;16.10;99.90
15115;DHT22;7658;51.456;7.622;2022-07-23T01:48:44;16.10;99.90
15115;DHT22;7658;51.456;7.622;2022-07-23T01:51:09;16.10;99.90
15115;DHT22;7658;51.456;7.622;2022-07-23T01:53:35;16.10;99.90
15115;DHT22;7658;51.456;7.622;2022-07-23T01:56:01;16.00;99.90
15115;DHT22;7658;51.456;7.622;2022-07-23T01:58:29;16.00;99.90
15115;DHT22;7658;51.456;7.622;2022-07-23T02:00:55;16.10;99.90
15115;DHT22;7658;51.456;7.622;2022-07-23T02:03:22;16.00;99.90
15115;DHT22;7658;51.456;7.622;2022-07-23T02:05:48;16.00;99.90
15115;DHT22;7658;51.456;7.622;2022-07-23T02:08:15;16.00;99.90
15115;DHT22;7658;51.456;7.622;2022-07-23T02:10:41;16.00;99.90
15115;DHT22;7658;51.456;7.622;2022-07-23T02:13:06;16.00;99.90
15115;DHT22;7658;51.456;7.622;2022-07-23T02:15:32;16.00;99.90
15115;DHT22;7658;51.456;7.622;2022-07-23T02:17:58;16.00;99.90
15115;DHT22;7658;51.456;7.622;2022-07-23T02:20:24;16.00;99.90
15115;DHT22;7658;51.456;7.622;2022-07-23T02:22:51;16.00;99.90
15115;DHT22;7658;51.456;7.622;2022-07-23T02:25:17;15.90;99.90
15115;DHT22;7658;51.456;7.622;2022-07-23T02:27:42;15.90;99.90
15115;DHT22;7658;51.456;7.622;2022-07-23T02:30:08;15.90;99.90
15115;DHT22;7658;51.456;7.622;2022-07-23T02:32:35;15.90;99.90
15115;DHT22;7658;51.456;7.622;2022-07-23T02:35:02;15.80;99.90
15115;DHT22;7658;51.456;7.622;2022-07-23T02:37:28;15.80;99.90
15115;DHT22;7658;51.456;7.622;2022-07-23T02:39:54;15.80;99.90
15115;DHT22;7658;51.456;7.622;2022-07-23T02:42:20;15.80;99.90
15115;DHT22;7658;51.456;7.622;2022-07-23T02:44:45;15.80;99.90
15115;DHT22;7658;51.456;7.622;2022-07-23T02:47:11;15.90;99.90
15115;DHT22;7658;51.456;7.622;2022-07-23T02:49:37;15.80;99.90
15115;DHT22;7658;51.456;7.622;2022-07-23T02:52:03;15.80;99.90
15115;DHT22;7658;51.456;7.622;2022-07-23T02:54:29;15.70;99.90
15115;DHT22;7658;51.456;7.622;2022-07-23T02:56:54;15.70;99.90
15115;DHT22;7658;51.456;7.622;2022-07-23T02:59:20;15.70;99.90
15115;DHT22;7658;51.456;7.622;2022-07-23T03:01:46;15.70;99.90
15115;DHT22;7658;51.456;7.622;2022-07-23T03:04:12;15.70;99.90
15115;DHT22;7658;51.456;7.622;2022-07-23T03:06:38;15.70;99.90
15115;DHT22;7658;51.456;7.622;2022-07-23T03:09:05;15.70;99.90
15115;DHT22;7658;51.456;7.622;2022-07-23T03:11:31;15.70;99.90
15115;DHT22;7658;51.456;7.622;2022-07-23T03:13:57;15.70;99.90
15115;DHT22;7658;51.456;7.622;2022-07-23T03:16:23;15.70;99.90
15115;DHT22;7658;51.456;7.622;2022-07-23T03:18:49;15.60;99.90
15115;DHT22;7658;51.456;7.622;2022-07-23T03:21:14;15.60;99.90
15115;DHT22;7658;51.456;7.622;2022-07-23T03:23:40;15.60;99.90
15115;DHT22;7658;51.456;7.622;2022-07-23T03:26:06;15.50;99.90
15115;DHT22;7658;51.456;7.622;2022-07-23T03:28:32;15.50;99.90
15115;DHT22;7658;51.456;7.622;2022-07-23T03:30:58;15.50;99.90
15115;DHT22;7658;51.456;7.622;2022-07-23T03:33:23;15.50;99.90
15115;DHT22;7658;51.456;7.622;2022-07-23T03:35:49;15.50;99.90
15115;DHT22;7658;51.456;7.622;2022-07-23T03:38:15;15.40;99.90
15115;DHT22;7658;51.456;7.622;2022-07-23T03:40:41;15.40;99.90
15115;DHT22;7658;51.456;7.622;2022-07-23T03:43:07;15.30;99.90
15115;DHT22;7658;51.456;7.622;2022-07-23T03:45:33;15.30;99.90
15115;DHT22;7658;51.456;7.622;2022-07-23T03:47:59;15.30;99.90
15115;DHT22;7658;51.456;7.622;2022-07-23T03:50:25;15.30;99.90
15115;DHT22;7658;51.456;7.622;2022-07-23T03:52:51;15.30;99.90
15115;DHT22;7658;51.456;7.622;2022-07-23T03:55:17;15.30;99.90
15115;DHT22;7658;51.456;7.622;2022-07-23T03:57:43;15.20;99.90
15115;DHT22;7658;51.456;7.622;2022-07-23T04:00:10;15.20;99.90
15115;DHT22;7658;51.456;7.622;2022-07-23T04:02:37;15.20;99.90
15115;DHT22;7658;51.456;7.622;2022-07-23T04:05:04;15.10;99.90
15115;DHT22;7658;51.456;7.622;2022-07-23T04:07:30;15.10;99.90
15115;DHT22;7658;51.456;7.622;2022-07-23T04:09:56;15.10;99.90
15115;DHT22;7658;51.456;7.622;2022-07-23T04:12:23;15.20;99.90
15115;DHT22;7658;51.456;7.622;2022-07-23T04:14:49;15.20;99.90
15115;DHT22;7658;51.456;7.622;2022-07-23T04:17:14;15.10;99.90
15115;DHT22;7658;51.456;7.622;2022-07-23T04:19:40;15.10;99.90
15115;DHT22;7658;51.456;7.622;2022-07-23T04:22:07;15.10;99.90
15115;DHT22;7658;51.456;7.622;2022-07-23T04:24:33;15.10;99.90
15115;DHT22;7658;51.456;7.622;2022-07-23T04:26:59;15.10;99.90
15115;DHT22;7658;51.456;7.622;2022-07-23T04:29:25;15.20;99.90
15115;DHT22;7658;51.456;7.622;2022-07-23T04:31:51;15.20;99.90
15115;DHT22;7658;51.456;7.622;2022-07-23T04:34:17;15.20;99.90
15115;DHT22;7658;51.456;7.622;2022-07-23T04:36:43;15.20;99.90
15115;DHT22;7658;51.456;7.622;2022-07-23T04:39:09;15.30;99.90
15115;DHT22;7658;51.456;7.622;2022-07-23T04:41:34;15.20;99.90
15115;DHT22;7658;51.456;7.622;2022-07-23T04:44:01;15.20;99.90
15115;DHT22;7658;51.456;7.622;2022-07-23T04:46:27;15.30;99.90
15115;DHT22;7658;51.456;7.622;2022-07-23T04:48:53;15.40;99.90
15115;DHT22;7658;51.456;7.622;2022-07-23T04:51:19;15.40;99.90
15115;DHT22;7658;51.456;7.622;2022-07-23T04:53:45;15.40;99.90
15115;DHT22;7658;51.456;7.622;2022-07-23T04:56:11;15.40;99.90
15115;DHT22;7658;51.456;7.622;2022-07-23T04:58:36;15.40;99.90
15115;DHT22;7658;51.456;7.622;2022-07-23T05:01:02;15.40;99.90
15115;DHT22;7658;51.456;7.622;2022-07-23T05:03:28;15.40;99.90
15115;DHT22;7658;51.456;7.622;2022-07-23T05:05:54;15.40;99.90
15115;DHT22;7658;51.456;7.622;2022-07-23T05:08:20;15.30;99.90
15115;DHT22;7658;51.456;7.622;2022-07-23T05:10:46;15.40;99.90
15115;DHT22;7658;51.456;7.622;2022-07-23T05:13:11;15.40;99.90
15115;DHT22;7658;51.456;7.622;2022-07-23T05:15:37;15.40;99.90
15115;DHT22;7658;51.456;7.622;2022-07-23T05:18:03;15.30;99.90
15115;DHT22;7658;51.456;7.622;2022-07-23T05:20:29;15.30;99.90
15115;DHT22;7658;51.456;7.622;2022-07-23T05:22:54;15.30;99.90
15115;DHT22;7658;51.456;7.622;2022-07-23T05:25:20;15.30;99.90
15115;DHT22;7658;51.456;7.622;2022-07-23T05:27:46;15.20;99.90
15115;DHT22;7658;51.456;7.622;2022-07-23T05:30:12;15.10;99.90
15115;DHT22;7658;51.456;7.622;2022-07-23T05:32:38;15.10;99.90
15115;DHT22;7658;51.456;7.622;2022-07-23T05:35:07;15.10;99.90
15115;DHT22;7658;51.456;7.622;2022-07-23T05:37:33;15.00;99.90
15115;DHT22;7658;51.456;7.622;2022-07-23T05:40:07;15.00;99.90
15115;DHT22;7658;51.456;7.622;2022-07-23T05:42:37;15.00;99.90
15115;DHT22;7658;51.456;7.622;2022-07-23T05:45:05;15.10;99.90
15115;DHT22;7658;51.456;7.622;2022-07-23T05:47:45;15.10;99.90
15115;DHT22;7658;51.456;7.622;2022-07-23T05:50:11;15.20;99.90
15115;DHT22;7658;51.456;7.622;2022-07-23T05:52:38;15.20;99.90
15115;DHT22;7658;51.456;7.622;2022-07-23T05:55:04;15.10;99.90
15115;DHT22;7658;51.456;7.622;2022-07-23T05:57:30;15.00;99.90
15115;DHT22;7658;51.456;7.622;2022-07-23T05:59:55;15.00;99.90
15115;DHT22;7658;51.456;7.622;2022-07-23T06:02:21;15.10;99.90
15115;DHT22;7658;51.456;7.622;2022-07-23T06:04:47;15.10;99.90
15115;DHT22;7658;51.456;7.622;2022-07-23T06:07:13;15.20;99.90
15115;DHT22;7658;51.456;7.622;2022-07-23T06:09:38;15.30;99.90
15115;DHT22;7658;51.456;7.622;2022-07-23T06:12:04;15.40;99.90
15115;DHT22;7658;51.456;7.622;2022-07-23T06:14:30;15.40;99.90
15115;DHT22;7658;51.456;7.622;2022-07-23T06:16:56;15.30;99.90
15115;DHT22;7658;51.456;7.622;2022-07-23T06:19:22;15.20;99.90
15115;DHT22;7658;51.456;7.622;2022-07-23T06:21:49;15.20;99.90
15115;DHT22;7658;51.456;7.622;2022-07-23T06:24:15;15.20;99.90
15115;DHT22;7658;51.456;7.622;2022-07-23T06:26:40;15.30;99.90
15115;DHT22;7658;51.456;7.622;2022-07-23T06:29:06;15.40;99.90
15115;DHT22;7658;51.456;7.622;2022-07-23T06:31:32;15.40;99.90
15115;DHT22;7658;51.456;7.622;2022-07-23T06:33:59;15.50;99.90
15115;DHT22;7658;51.456;7.622;2022-07-23T06:36:24;15.50;99.90
15115;DHT22;7658;51.456;7.622;2022-07-23T06:38:50;15.50;99.90
15115;DHT22;7658;51.456;7.622;2022-07-23T06:41:16;15.40;99.90
15115;DHT22;7658;51.456;7.622;2022-07-23T06:43:41;15.40;99.90
15115;DHT22;7658;51.456;7.622;2022-07-23T06:46:07;15.50;99.90
15115;DHT22;7658;51.456;7.622;2022-07-23T06:48:33;15.70;99.90
15115;DHT22;7658;51.456;7.622;2022-07-23T06:51:01;15.70;99.90
15115;DHT22;7658;51.456;7.622;2022-07-23T06:53:28;15.80;99.90
15115;DHT22;7658;51.456;7.622;2022-07-23T06:55:53;15.90;99.90
15115;DHT22;7658;51.456;7.622;2022-07-23T06:58:19;16.00;99.90
15115;DHT22;7658;51.456;7.622;2022-07-23T07:00:45;16.10;99.90
15115;DHT22;7658;51.456;7.622;2022-07-23T07:03:11;16.20;99.90
15115;DHT22;7658;51.456;7.622;2022-07-23T07:05:37;16.20;99.90
15115;DHT22;7658;51.456;7.622;2022-07-23T07:08:05;16.20;99.90
15115;DHT22;7658;51.456;7.622;2022-07-23T07:10:31;16.20;99.90
15115;DHT22;7658;51.456;7.622;2022-07-23T07:12:57;16.10;99.90
15115;DHT22;7658;51.456;7.622;2022-07-23T07:15:23;16.10;99.90
15115;DHT22;7658;51.456;7.622;2022-07-23T07:17:49;16.10;99.90
15115;DHT22;7658;51.456;7.622;2022-07-23T07:20:14;16.20;99.90
15115;DHT22;7658;51.456;7.622;2022-07-23T07:22:40;16.30;99.90
15115;DHT22;7658;51.456;7.622;2022-07-23T07:25:07;16.40;99.90
15115;DHT22;7658;51.456;7.622;2022-07-23T07:27:33;16.30;99.90
15115;DHT22;7658;51.456;7.622;2022-07-23T07:29:59;16.20;99.90
15115;DHT22;7658;51.456;7.622;2022-07-23T07:32:24;16.10;99.90
15115;DHT22;7658;51.456;7.622;2022-07-23T07:34:50;16.20;99.90
15115;DHT22;7658;51.456;7.622;2022-07-23T07:37:16;16.20;99.90
15115;DHT22;7658;51.456;7.622;2022-07-23T07:39:42;16.40;99.90
15115;DHT22;7658;51.456;7.622;2022-07-23T07:42:08;16.50;99.90
15115;DHT22;7658;51.456;7.622;2022-07-23T07:44:33;16.60;99.90
15115;DHT22;7658;51.456;7.622;2022-07-23T07:46:59;16.70;99.90
15115;DHT22;7658;51.456;7.622;2022-07-23T07:49:25;16.60;99.90
15115;DHT22;7658;51.456;7.622;2022-07-23T07:51:51;16.60;99.90
15115;DHT22;7658;51.456;7.622;2022-07-23T07:54:16;16.50;99.90
15115;DHT22;7658;51.456;7.622;2022-07-23T07:56:42;16.60;99.90
15115;DHT22;7658;51.456;7.622;2022-07-23T07:59:08;16.80;99.90
15115;DHT22;7658;51.456;7.622;2022-07-23T08:01:34;17.00;99.90
15115;DHT22;7658;51.456;7.622;2022-07-23T08:04:00;17.10;99.90
15115;DHT22;7658;51.456;7.622;2022-07-23T08:06:25;17.30;99.90
15115;DHT22;7658;51.456;7.622;2022-07-23T08:08:51;17.50;99.90
15115;DHT22;7658;51.456;7.622;2022-07-23T08:11:17;17.30;99.90
15115;DHT22;7658;51.456;7.622;2022-07-23T08:13:43;17.30;99.90
15115;DHT22;7658;51.456;7.622;2022-07-23T08:16:10;17.20;99.90
15115;DHT22;7658;51.456;7.622;2022-07-23T08:18:36;17.30;99.90
15115;DHT22;7658;51.456;7.622;2022-07-23T08:21:02;17.40;99.90
15115;DHT22;7658;51.456;7.622;2022-07-23T08:23:29;17.50;99.90
15115;DHT22;7658;51.456;7.622;2022-07-23T08:25:55;17.50;99.90
15115;DHT22;7658;51.456;7.622;2022-07-23T08:28:22;17.60;99.90
15115;DHT22;7658;51.456;7.622;2022-07-23T08:30:48;17.60;99.90
15115;DHT22;7658;51.456;7.622;2022-07-23T08:33:16;17.60;99.90
15115;DHT22;7658;51.456;7.622;2022-07-23T08:35:44;17.80;99.90
15115;DHT22;7658;51.456;7.622;2022-07-23T08:38:13;17.80;99.90
15115;DHT22;7658;51.456;7.622;2022-07-23T08:40:53;17.90;99.90
15115;DHT22;7658;51.456;7.622;2022-07-23T08:43:22;18.00;99.90
15115;DHT22;7658;51.456;7.622;2022-07-23T08:45:50;18.00;99.90
15115;DHT22;7658;51.456;7.622;2022-07-23T08:48:23;17.90;99.90
15115;DHT22;7658;51.456;7.622;2022-07-23T08:50:51;17.90;99.90
15115;DHT22;7658;51.456;7.622;2022-07-23T08:53:18;18.00;99.90
15115;DHT22;7658;51.456;7.622;2022-07-23T08:55:49;18.10;99.90
15115;DHT22;7658;51.456;7.622;2022-07-23T08:58:15;18.40;99.90
15115;DHT22;7658;51.456;7.622;2022-07-23T09:00:41;18.50;99.90
15115;DHT22;7658;51.456;7.622;2022-07-23T09:03:07;18.70;99.90
15115;DHT22;7658;51.456;7.622;2022-07-23T09:05:38;19.00;99.90
15115;DHT22;7658;51.456;7.622;2022-07-23T09:08:15;19.10;99.90
15115;DHT22;7658;51.456;7.622;2022-07-23T09:15:57;19.10;99.90
15115;DHT22;7658;51.456;7.622;2022-07-23T09:18:53;19.00;99.90
15115;DHT22;7658;51.456;7.622;2022-07-23T09:21:37;18.90;99.90
15115;DHT22;7658;51.456;7.622;2022-07-23T09:24:11;19.00;99.90
15115;DHT22;7658;51.456;7.622;2022-07-23T09:26:38;19.30;99.90
15115;DHT22;7658;51.456;7.622;2022-07-23T09:29:17;19.40;99.90
15115;DHT22;7658;51.456;7.622;2022-07-23T09:34:11;19.50;99.90
15115;DHT22;7658;51.456;7.622;2022-07-23T09:36:38;19.70;99.90
15115;DHT22;7658;51.456;7.622;2022-07-23T09:39:04;20.00;99.90
15115;DHT22;7658;51.456;7.622;2022-07-23T09:41:48;20.10;99.90
15115;DHT22;7658;51.456;7.622;2022-07-23T09:44:19;20.30;99.90
15115;DHT22;7658;51.456;7.622;2022-07-23T09:46:50;20.50;99.90
15115;DHT22;7658;51.456;7.622;2022-07-23T09:49:21;20.80;99.90
15115;DHT22;7658;51.456;7.622;2022-07-23T09:54:29;20.90;99.90
15115;DHT22;7658;51.456;7.622;2022-07-23T09:56:58;20.70;99.90
15115;DHT22;7658;51.456;7.622;2022-07-23T09:59:27;20.60;99.90
15115;DHT22;7658;51.456;7.622;2022-07-23T10:01:58;20.40;99.90
15115;DHT22;7658;51.456;7.622;2022-07-23T10:04:26;20.20;99.90
15115;DHT22;7658;51.456;7.622;2022-07-23T10:06:54;20.40;99.90
15115;DHT22;7658;51.456;7.622;2022-07-23T10:09:32;20.60;99.90
15115;DHT22;7658;51.456;7.622;2022-07-23T10:12:00;20.80;99.90
15115;DHT22;7658;51.456;7.622;2022-07-23T10:14:49;21.20;99.90
15115;DHT22;7658;51.456;7.622;2022-07-23T10:17:17;21.50;99.90
15115;DHT22;7658;51.456;7.622;2022-07-23T10:19:43;21.50;99.90
15115;DHT22;7658;51.456;7.622;2022-07-23T10:25:24;21.30;99.90
15115;DHT22;7658;51.456;7.622;2022-07-23T10:28:19;21.40;99.90
15115;DHT22;7658;51.456;7.622;2022-07-23T10:36:26;21.70;99.90
15115;DHT22;7658;51.456;7.622;2022-07-23T10:38:58;21.70;99.90
15115;DHT22;7658;51.456;7.622;2022-07-23T10:41:37;21.80;99.90
15115;DHT22;7658;51.456;7.622;2022-07-23T10:44:18;21.90;99.90
15115;DHT22;7658;51.456;7.622;2022-07-23T10:47:04;22.10;99.90
15115;DHT22;7658;51.456;7.622;2022-07-23T10:49:50;22.40;99.90
15115;DHT22;7658;51.456;7.622;2022-07-23T10:52:26;22.30;99.90
15115;DHT22;7658;51.456;7.622;2022-07-23T10:57:48;22.00;99.90
15115;DHT22;7658;51.456;7.622;2022-07-23T11:00:22;22.00;99.90
15115;DHT22;7658;51.456;7.622;2022-07-23T11:02:53;22.20;99.90
15115;DHT22;7658;51.456;7.622;2022-07-23T11:05:38;22.30;99.90
15115;DHT22;7658;51.456;7.622;2022-07-23T11:10:55;22.60;99.90
15115;DHT22;7658;51.456;7.622;2022-07-23T11:24:15;23.00;99.90
15115;DHT22;7658;51.456;7.622;2022-07-23T11:26:46;23.10;99.90
15115;DHT22;7658;51.456;7.622;2022-07-23T11:34:33;23.40;99.90
15115;DHT22;7658;51.456;7.622;2022-07-23T11:37:01;23.40;99.90
15115;DHT22;7658;51.456;7.622;2022-07-23T11:39:29;23.50;99.90
15115;DHT22;7658;51.456;7.622;2022-07-23T11:41:56;23.60;99.90
15115;DHT22;7658;51.456;7.622;2022-07-23T11:44:36;23.90;99.90
15115;DHT22;7658;51.456;7.622;2022-07-23T11:49:30;24.30;99.90
15115;DHT22;7658;51.456;7.622;2022-07-23T11:52:12;23.90;99.90
15115;DHT22;7658;51.456;7.622;2022-07-23T11:54:58;24.00;99.90
15115;DHT22;7658;51.456;7.622;2022-07-23T11:57:26;24.20;99.90
15115;DHT22;7658;51.456;7.622;2022-07-23T11:59:55;24.50;99.90
15115;DHT22;7658;51.456;7.622;2022-07-23T12:02:22;24.80;99.90
15115;DHT22;7658;51.456;7.622;2022-07-23T12:04:51;25.30;99.90
15115;DHT22;7658;51.456;7.622;2022-07-23T12:07:30;25.60;99.90
15115;DHT22;7658;51.456;7.622;2022-07-23T12:10:03;25.80;99.90
15115;DHT22;7658;51.456;7.622;2022-07-23T12:12:36;25.20;99.90
15115;DHT22;7658;51.456;7.622;2022-07-23T12:15:03;25.00;99.90
15115;DHT22;7658;51.456;7.622;2022-07-23T12:17:31;25.00;99.90
15115;DHT22;7658;51.456;7.622;2022-07-23T12:19:59;25.10;99.90
15115;DHT22;7658;51.456;7.622;2022-07-23T12:22:34;25.20;99.90
15115;DHT22;7658;51.456;7.622;2022-07-23T12:25:05;25.60;99.90
15115;DHT22;7658;51.456;7.622;2022-07-23T12:27:31;25.90;99.90
15115;DHT22;7658;51.456;7.622;2022-07-23T12:29:57;26.10;99.90
15115;DHT22;7658;51.456;7.622;2022-07-23T12:32:28;26.30;99.90
15115;DHT22;7658;51.456;7.622;2022-07-23T12:35:08;26.50;99.90
15115;DHT22;7658;51.456;7.622;2022-07-23T12:37:36;26.00;99.90
15115;DHT22;7658;51.456;7.622;2022-07-23T12:40:25;25.60;99.90
15115;DHT22;7658;51.456;7.622;2022-07-23T12:42:58;26.00;99.90
15115;DHT22;7658;51.456;7.622;2022-07-23T12:45:25;26.00;99.90
15115;DHT22;7658;51.456;7.622;2022-07-23T12:48:01;26.00;99.90
15115;DHT22;7658;51.456;7.622;2022-07-23T12:53:14;26.50;99.90
15115;DHT22;7658;51.456;7.622;2022-07-23T12:55:40;26.70;99.90
15115;DHT22;7658;51.456;7.622;2022-07-23T12:58:20;26.80;99.90
15115;DHT22;7658;51.456;7.622;2022-07-23T13:00:58;27.10;99.90
15115;DHT22;7658;51.456;7.622;2022-07-23T13:03:31;26.80;99.90
15115;DHT22;7658;51.456;7.622;2022-07-23T13:05:58;26.20;99.90
15115;DHT22;7658;51.456;7.622;2022-07-23T13:08:27;26.20;99.90
15115;DHT22;7658;51.456;7.622;2022-07-23T13:10:53;26.40;99.90
15115;DHT22;7658;51.456;7.622;2022-07-23T13:13:25;26.60;99.90
15115;DHT22;7658;51.456;7.622;2022-07-23T13:15:52;27.00;99.90
15115;DHT22;7658;51.456;7.622;2022-07-23T13:18:18;27.50;99.90
15115;DHT22;7658;51.456;7.622;2022-07-23T13:20:46;27.50;99.90
15115;DHT22;7658;51.456;7.622;2022-07-23T13:23:13;27.30;99.90
15115;DHT22;7658;51.456;7.622;2022-07-23T13:25:39;27.30;99.90
15115;DHT22;7658;51.456;7.622;2022-07-23T13:28:05;26.90;99.90
15115;DHT22;7658;51.456;7.622;2022-07-23T13:30:31;26.90;99.90
15115;DHT22;7658;51.456;7.622;2022-07-23T13:32:56;27.00;99.90
15115;DHT22;7658;51.456;7.622;2022-07-23T13:35:23;26.80;99.90
15115;DHT22;7658;51.456;7.622;2022-07-23T13:37:49;26.80;99.90
15115;DHT22;7658;51.456;7.622;2022-07-23T13:40:15;27.30;99.90
15115;DHT22;7658;51.456;7.622;2022-07-23T13:42:40;27.50;99.90
15115;DHT22;7658;51.456;7.622;2022-07-23T13:45:07;27.60;99.90
15115;DHT22;7658;51.456;7.622;2022-07-23T13:47:33;26.70;99.90
15115;DHT22;7658;51.456;7.622;2022-07-23T13:49:59;26.20;99.90
15115;DHT22;7658;51.456;7.622;2022-07-23T13:52:25;26.00;99.90
15115;DHT22;7658;51.456;7.622;2022-07-23T13:54:50;26.20;99.90
15115;DHT22;7658;51.456;7.622;2022-07-23T13:57:17;26.70;99.90
15115;DHT22;7658;51.456;7.622;2022-07-23T13:59:42;27.10;99.90
15115;DHT22;7658;51.456;7.622;2022-07-23T14:02:08;27.00;99.90
15115;DHT22;7658;51.456;7.622;2022-07-23T14:04:35;26.40;99.90
15115;DHT22;7658;51.456;7.622;2022-07-23T14:07:01;26.00;99.90
15115;DHT22;7658;51.456;7.622;2022-07-23T14:09:27;26.00;99.90
15115;DHT22;7658;51.456;7.622;2022-07-23T14:11:53;26.50;99.90
15115;DHT22;7658;51.456;7.622;2022-07-23T14:14:19;27.30;99.90
15115;DHT22;7658;51.456;7.622;2022-07-23T14:16:45;27.90;99.90
15115;DHT22;7658;51.456;7.622;2022-07-23T14:19:11;27.30;99.90
15115;DHT22;7658;51.456;7.622;2022-07-23T14:21:37;26.90;99.90
15115;DHT22;7658;51.456;7.622;2022-07-23T14:24:03;27.10;99.90
15115;DHT22;7658;51.456;7.622;2022-07-23T14:26:29;27.60;99.90
15115;DHT22;7658;51.456;7.622;2022-07-23T14:28:56;28.30;99.90
15115;DHT22;7658;51.456;7.622;2022-07-23T14:31:22;28.40;99.90
15115;DHT22;7658;51.456;7.622;2022-07-23T14:33:48;28.00;99.90
15115;DHT22;7658;51.456;7.622;2022-07-23T14:36:15;28.00;99.90
15115;DHT22;7658;51.456;7.622;2022-07-23T14:38:40;27.90;99.90
15115;DHT22;7658;51.456;7.622;2022-07-23T14:41:06;26.90;99.90
15115;DHT22;7658;51.456;7.622;2022-07-23T14:43:33;26.30;99.90
15115;DHT22;7658;51.456;7.622;2022-07-23T14:45:59;26.10;99.90
15115;DHT22;7658;51.456;7.622;2022-07-23T14:48:25;25.60;99.90
15115;DHT22;7658;51.456;7.622;2022-07-23T14:50:51;25.30;99.90
15115;DHT22;7658;51.456;7.622;2022-07-23T14:53:17;25.50;99.90
15115;DHT22;7658;51.456;7.622;2022-07-23T14:55:42;26.30;99.90
15115;DHT22;7658;51.456;7.622;2022-07-23T14:58:09;27.00;99.90
15115;DHT22;7658;51.456;7.622;2022-07-23T15:00:34;27.40;99.90
15115;DHT22;7658;51.456;7.622;2022-07-23T15:03:00;28.00;99.90
15115;DHT22;7658;51.456;7.622;2022-07-23T15:05:26;28.60;99.90
15115;DHT22;7658;51.456;7.622;2022-07-23T15:07:53;29.00;99.90
15115;DHT22;7658;51.456;7.622;2022-07-23T15:10:19;29.60;99.90
15115;DHT22;7658;51.456;7.622;2022-07-23T15:12:44;29.50;99.90
15115;DHT22;7658;51.456;7.622;2022-07-23T15:15:10;29.80;99.90
15115;DHT22;7658;51.456;7.622;2022-07-23T15:17:36;29.90;99.90
15115;DHT22;7658;51.456;7.622;2022-07-23T15:20:02;30.20;99.90
15115;DHT22;7658;51.456;7.622;2022-07-23T15:22:28;29.90;99.90
15115;DHT22;7658;51.456;7.622;2022-07-23T15:24:54;29.80;99.90
15115;DHT22;7658;51.456;7.622;2022-07-23T15:27:20;29.70;99.90
15115;DHT22;7658;51.456;7.622;2022-07-23T15:29:46;29.10;99.90
15115;DHT22;7658;51.456;7.622;2022-07-23T15:32:11;28.60;99.90
15115;DHT22;7658;51.456;7.622;2022-07-23T15:34:38;28.50;99.90
15115;DHT22;7658;51.456;7.622;2022-07-23T15:37:04;28.10;99.90
15115;DHT22;7658;51.456;7.622;2022-07-23T15:39:32;27.60;99.90
15115;DHT22;7658;51.456;7.622;2022-07-23T15:41:59;27.30;99.90
15115;DHT22;7658;51.456;7.622;2022-07-23T15:44:25;27.50;99.90
15115;DHT22;7658;51.456;7.622;2022-07-23T15:46:51;27.30;99.90
15115;DHT22;7658;51.456;7.622;2022-07-23T15:49:17;27.20;99.90
15115;DHT22;7658;51.456;7.622;2022-07-23T15:51:43;27.00;99.90
15115;DHT22;7658;51.456;7.622;2022-07-23T15:54:08;26.50;99.90
15115;DHT22;7658;51.456;7.622;2022-07-23T15:56:34;26.40;99.90
15115;DHT22;7658;51.456;7.622;2022-07-23T15:59:00;26.30;99.90
15115;DHT22;7658;51.456;7.622;2022-07-23T16:01:26;26.20;99.90
15115;DHT22;7658;51.456;7.622;2022-07-23T16:03:58;26.20;99.90
15115;DHT22;7658;51.456;7.622;2022-07-23T16:06:25;26.50;99.90
15115;DHT22;7658;51.456;7.622;2022-07-23T16:08:51;26.50;99.90
15115;DHT22;7658;51.456;7.622;2022-07-23T16:11:17;26.30;99.90
15115;DHT22;7658;51.456;7.622;2022-07-23T16:13:43;25.80;99.90
15115;DHT22;7658;51.456;7.622;2022-07-23T16:16:10;25.50;99.90
15115;DHT22;7658;51.456;7.622;2022-07-23T16:18:37;25.50;99.90
15115;DHT22;7658;51.456;7.622;2022-07-23T16:21:03;25.50;99.90
15115;DHT22;7658;51.456;7.622;2022-07-23T16:23:29;25.50;99.90
15115;DHT22;7658;51.456;7.622;2022-07-23T16:25:55;25.40;99.90
15115;DHT22;7658;51.456;7.622;2022-07-23T16:28:20;25.40;99.90
15115;DHT22;7658;51.456;7.622;2022-07-23T16:30:46;25.30;99.90
15115;DHT22;7658;51.456;7.622;2022-07-23T16:33:12;25.20;99.90